Time;durP1;ratioP1;P1;durP2;ratioP2;P2;SDS_P1;SDS_P2;PMS_P1;PMS_P2;Temp;Humidity;BMP_temperature;BMP_pressure;BME280_temperature;BME280_humidity;BME280_pressure;Samples;Min_cycle;Max_cycle;Signal;HPM_P1;HPM_P2
2022/03/15 00:02:24;;;;;;;9.70;6.25;;;;;;;16.68;29.78;94491.69;4881268;29;20040;-89
2022/03/15 00:04:50;;;;;;;8.50;6.70;;;;;;;16.69;29.91;94489.72;4881853;29;20048;-87
2022/03/15 00:07:16;;;;;;;8.65;6.68;;;;;;;16.71;29.96;94490.00;4896964;29;20080;-87
2022/03/15 00:09:43;;;;;;;9.40;6.90;;;;;;;16.67;29.78;94489.47;4881980;29;20036;-87
2022/03/15 00:12:09;;;;;;;8.30;6.22;;;;;;;16.66;30.05;94485.22;4912499;29;20380;-88
2022/03/15 00:14:36;;;;;;;10.20;6.35;;;;;;;16.66;29.89;94483.25;4897246;29;20121;-88
2022/03/15 00:17:03;;;;;;;9.18;6.68;;;;;;;16.65;29.77;94475.53;4881759;29;20059;-87
2022/03/15 00:19:28;;;;;;;9.48;6.85;;;;;;;16.65;29.88;94465.38;4880778;29;20079;-88
2022/03/15 00:21:53;;;;;;;7.60;6.15;;;;;;;16.66;29.79;94475.06;4912555;29;20032;-89
2022/03/15 00:24:19;;;;;;;8.88;6.70;;;;;;;16.66;29.82;94466.13;4881015;29;20043;-87
2022/03/15 00:26:44;;;;;;;8.90;6.43;;;;;;;16.63;29.68;94467.81;4896956;29;20043;-87
2022/03/15 00:29:10;;;;;;;7.93;6.47;;;;;;;16.64;29.85;94466.59;4896439;29;20036;-88
2022/03/15 00:31:35;;;;;;;7.43;6.10;;;;;;;16.64;30.02;94468.56;4897040;29;20036;-87
2022/03/15 00:34:01;;;;;;;7.72;6.38;;;;;;;16.65;29.88;94462.63;4896637;29;20040;-87
2022/03/15 00:36:35;;;;;;;7.22;6.10;;;;;;;16.63;29.83;94462.34;4913413;29;20040;-87
2022/03/15 00:39:01;;;;;;;8.00;6.32;;;;;;;16.63;29.87;94456.88;4882622;29;20043;-87
2022/03/15 00:41:26;;;;;;;8.45;6.82;;;;;;;16.62;30.12;94458.09;4892713;29;20040;-87
2022/03/15 00:43:51;;;;;;;7.13;5.97;;;;;;;16.64;29.70;94452.19;4899258;29;20096;-90
2022/03/15 00:46:17;;;;;;;7.63;6.55;;;;;;;16.62;29.64;94451.88;4896121;29;20036;-87
2022/03/15 00:48:42;;;;;;;10.23;6.50;;;;;;;16.61;30.04;94451.13;4897329;29;20048;-87
2022/03/15 00:51:08;;;;;;;8.07;6.40;;;;;;;16.61;29.70;94451.13;4892427;29;20416;-87
2022/03/15 00:53:34;;;;;;;6.80;5.82;;;;;;;16.61;30.14;94445.66;4892848;29;20037;-87
2022/03/15 00:55:59;;;;;;;7.75;6.03;;;;;;;16.62;29.85;94443.69;4878144;29;20040;-87
2022/03/15 00:58:25;;;;;;;7.28;6.15;;;;;;;16.61;29.90;94437.47;4894239;29;20036;-87
2022/03/15 01:00:50;;;;;;;7.40;6.20;;;;;;;16.61;30.21;94436.72;4887816;29;20055;-87
2022/03/15 01:03:16;;;;;;;7.85;5.95;;;;;;;16.62;29.88;94440.94;4896208;29;20040;-87
2022/03/15 01:05:41;;;;;;;7.60;5.93;;;;;;;16.61;29.71;94434.75;4912187;29;20040;-87
2022/03/15 01:08:07;;;;;;;7.10;5.32;;;;;;;16.65;29.91;94429.13;4895403;29;20032;-87
2022/03/15 01:10:32;;;;;;;6.70;5.45;;;;;;;16.61;30.01;94429.28;4895268;29;20432;-87
2022/03/15 01:12:58;;;;;;;7.25;5.82;;;;;;;16.62;29.83;94430.03;4896309;29;20087;-89
2022/03/15 01:15:25;;;;;;;7.70;5.80;;;;;;;16.61;29.77;94429.28;4895656;29;20486;-87
2022/03/15 01:17:51;;;;;;;8.18;5.88;;;;;;;16.60;29.87;94425.03;4929566;29;20053;-87
2022/03/15 01:20:16;;;;;;;7.57;5.72;;;;;;;16.62;29.94;94416.38;4913649;29;20074;-87
2022/03/15 01:22:42;;;;;;;7.30;6.00;;;;;;;16.59;30.04;94417.31;4899056;29;20059;-87
2022/03/15 01:25:08;;;;;;;6.90;5.63;;;;;;;16.60;30.05;94429.75;4914479;29;20075;-87
2022/03/15 01:27:34;;;;;;;7.47;6.03;;;;;;;16.60;29.88;94422.31;4898874;29;20036;-87
2022/03/15 01:30:00;;;;;;;7.68;5.55;;;;;;;16.59;30.18;94418.09;4914762;29;20059;-87
2022/03/15 01:32:25;;;;;;;6.32;5.32;;;;;;;16.60;29.80;94427.78;4913998;29;20048;-87
2022/03/15 01:34:51;;;;;;;6.88;5.45;;;;;;;16.59;30.19;94412.63;4930442;29;20558;-87
2022/03/15 01:37:16;;;;;;;8.95;5.70;;;;;;;16.59;29.87;94409.88;4929865;29;20032;-87
2022/03/15 01:39:41;;;;;;;6.80;5.50;;;;;;;16.61;30.19;94415.63;4895953;29;20036;-88
2022/03/15 01:42:07;;;;;;;7.30;5.63;;;;;;;16.61;29.85;94414.88;4924276;29;20032;-87
2022/03/15 01:44:33;;;;;;;6.88;5.72;;;;;;;16.58;29.95;94411.13;4913997;29;20063;-87
2022/03/15 01:46:59;;;;;;;6.88;5.38;;;;;;;16.59;30.18;94396.25;4899073;29;20047;-87
2022/03/15 01:49:25;;;;;;;7.25;5.28;;;;;;;16.58;30.21;94399.44;4898157;29;20036;-89
2022/03/15 01:51:50;;;;;;;6.13;5.07;;;;;;;16.59;30.29;94395.50;4913836;29;20042;-88
2022/03/15 01:54:16;;;;;;;5.82;5.22;;;;;;;16.59;30.04;94398.22;4913722;29;20044;-87
2022/03/15 01:56:42;;;;;;;6.63;5.40;;;;;;;16.58;29.87;94400.19;4914421;29;20095;-87
2022/03/15 01:59:09;;;;;;;7.75;5.60;;;;;;;16.57;29.81;94393.22;4913530;29;20452;-87
2022/03/15 02:01:35;;;;;;;7.15;5.10;;;;;;;16.58;30.00;94393.97;4929211;29;20168;-87
2022/03/15 02:04:00;;;;;;;5.78;5.18;;;;;;;16.57;30.20;94397.94;4914009;29;20132;-87
2022/03/15 02:06:25;;;;;;;7.70;5.38;;;;;;;16.57;30.14;94390.50;4913413;29;20125;-88
2022/03/15 02:08:51;;;;;;;6.93;5.38;;;;;;;16.55;30.08;94390.22;4929702;29;20035;-87
2022/03/15 02:11:17;;;;;;;6.18;5.03;;;;;;;16.56;30.19;94390.97;4930370;29;20035;-87
2022/03/15 02:13:43;;;;;;;6.80;5.45;;;;;;;16.57;30.19;94395.22;4914049;29;20044;-87
2022/03/15 02:16:09;;;;;;;5.88;5.03;;;;;;;16.61;30.24;94390.31;4927010;29;20044;-88
2022/03/15 02:18:34;;;;;;;6.05;4.95;;;;;;;16.56;30.27;94390.97;4879537;29;20048;-87
2022/03/15 02:20:59;;;;;;;5.63;5.03;;;;;;;16.58;30.12;94388.53;4894473;29;20114;-87
2022/03/15 02:23:25;;;;;;;7.07;5.30;;;;;;;16.56;30.18;94388.25;4894489;29;20040;-88
2022/03/15 02:25:50;;;;;;;5.72;5.07;;;;;;;16.56;30.21;94390.97;4895340;29;20523;-87
2022/03/15 02:28:17;;;;;;;6.15;5.05;;;;;;;16.55;30.21;94382.03;4910094;29;20048;-87
2022/03/15 02:30:42;;;;;;;6.43;5.15;;;;;;;16.56;30.00;94385.53;4895283;29;20261;-87
2022/03/15 02:33:07;;;;;;;7.60;5.25;;;;;;;16.57;30.07;94378.84;4893992;29;20172;-86
2022/03/15 02:35:33;;;;;;;5.38;4.80;;;;;;;16.55;29.88;94376.56;4879524;29;20036;-87
2022/03/15 02:37:58;;;;;;;5.30;4.60;;;;;;;16.54;30.13;94377.06;4895111;29;20032;-87
2022/03/15 02:40:24;;;;;;;5.93;5.32;;;;;;;16.53;29.82;94365.38;4894549;29;20040;-87
2022/03/15 02:42:49;;;;;;;5.63;4.60;;;;;;;16.53;30.02;94365.38;4921088;29;20040;-87
2022/03/15 02:45:15;;;;;;;6.03;4.90;;;;;;;16.53;30.27;94362.66;4911214;29;20043;-87
2022/03/15 02:47:43;;;;;;;5.53;4.70;;;;;;;16.53;30.12;94362.66;4895390;29;20115;-87
2022/03/15 02:50:09;;;;;;;5.10;4.60;;;;;;;16.54;30.21;94366.13;4879444;29;20503;-87
2022/03/15 02:52:34;;;;;;;5.82;4.78;;;;;;;16.52;29.88;94358.41;4885458;29;20044;-87
2022/03/15 02:55:00;;;;;;;4.95;4.45;;;;;;;16.53;30.21;94368.09;4913245;29;20039;-87
2022/03/15 02:57:25;;;;;;;5.63;5.00;;;;;;;16.55;30.40;94357.47;4913310;29;20036;-88
2022/03/15 02:59:51;;;;;;;4.82;4.15;;;;;;;16.53;29.85;94367.34;4926732;29;20710;-87
2022/03/15 03:02:17;;;;;;;5.50;4.55;;;;;;;16.51;30.22;94361.63;4896480;29;20032;-90
2022/03/15 03:04:43;;;;;;;4.97;4.47;;;;;;;16.52;30.37;94361.16;4913482;29;20044;-87
2022/03/15 03:07:09;;;;;;;5.53;4.78;;;;;;;16.51;30.08;94350.69;4897338;29;20031;-87
2022/03/15 03:09:34;;;;;;;6.07;4.32;;;;;;;16.51;30.16;94354.19;4929319;29;20043;-87
2022/03/15 03:12:00;;;;;;;4.95;3.75;;;;;;;16.52;30.16;94352.97;4916260;29;20051;-87
2022/03/15 03:14:25;;;;;;;5.40;4.43;;;;;;;16.51;30.22;94346.00;4900672;29;20086;-91
2022/03/15 03:16:51;;;;;;;5.35;4.13;;;;;;;16.52;29.97;94352.22;4932857;29;20514;-87
2022/03/15 03:19:17;;;;;;;5.10;4.07;;;;;;;16.50;30.28;94343.75;4916405;29;20522;-87
2022/03/15 03:21:42;;;;;;;5.30;4.65;;;;;;;16.51;29.91;94348.72;4903580;29;20047;-87
2022/03/15 03:24:08;;;;;;;4.88;3.92;;;;;;;16.50;30.02;94341.75;4878674;29;20416;-87
2022/03/15 03:26:36;;;;;;;5.05;4.22;;;;;;;16.49;29.91;94337.53;4879474;29;20056;-87
2022/03/15 03:29:01;;;;;;;4.85;4.13;;;;;;;16.49;30.14;94334.78;4879695;29;20397;-87
2022/03/15 03:31:29;;;;;;;4.60;4.20;;;;;;;16.48;30.09;94333.28;4879064;29;20138;-87
2022/03/15 03:33:54;;;;;;;5.35;4.10;;;;;;;16.48;30.23;94338.75;4904180;29;20099;-88
2022/03/15 03:36:19;;;;;;;5.18;4.30;;;;;;;16.48;30.25;94338.00;4913150;29;20032;-87
2022/03/15 03:38:45;;;;;;;4.70;4.10;;;;;;;16.49;30.15;94334.78;4897990;29;20040;-87
2022/03/15 03:41:10;;;;;;;4.47;3.75;;;;;;;16.47;30.28;94323.59;4897185;29;20488;-88
2022/03/15 03:43:36;;;;;;;5.30;4.28;;;;;;;16.46;30.26;94314.66;4900529;29;20040;-87
2022/03/15 03:46:02;;;;;;;4.75;3.80;;;;;;;16.48;30.18;94313.44;4894926;29;20033;-91
2022/03/15 03:48:27;;;;;;;4.65;3.85;;;;;;;16.46;30.25;94317.41;4863101;29;20044;-87
2022/03/15 03:50:53;;;;;;;4.75;4.15;;;;;;;16.50;29.97;94311.00;4862988;29;20043;-87
2022/03/15 03:53:19;;;;;;;4.07;3.65;;;;;;;16.48;30.04;94305.25;4865150;29;20400;-88
2022/03/15 03:55:44;;;;;;;5.30;4.05;;;;;;;16.49;30.28;94306.75;4882030;29;20044;-87
2022/03/15 03:58:10;;;;;;;4.47;3.67;;;;;;;16.48;30.08;94311.47;4912622;29;20452;-87
2022/03/15 04:00:36;;;;;;;4.53;3.70;;;;;;;16.48;30.03;94307.97;4913057;29;20048;-87
2022/03/15 04:03:01;;;;;;;4.60;3.70;;;;;;;16.46;30.26;94301.03;4913258;29;20028;-88
2022/03/15 04:05:30;;;;;;;4.72;4.07;;;;;;;16.47;30.05;94299.03;4881165;29;20447;-87
2022/03/15 04:07:57;;;;;;;5.88;3.60;;;;;;;16.46;30.23;94303.00;4898187;29;20066;-89
2022/03/15 04:10:23;;;;;;;5.32;3.85;;;;;;;16.47;30.17;94307.22;4912318;29;20438;-87
2022/03/15 04:12:50;;;;;;;4.43;3.40;;;;;;;16.46;29.98;94301.03;4896909;29;20036;-87
2022/03/15 04:15:16;;;;;;;4.50;3.78;;;;;;;16.46;30.25;94303.75;4880911;29;20032;-87
2022/03/15 04:17:42;;;;;;;5.88;3.90;;;;;;;16.49;30.23;94301.28;4948610;29;20047;-87
2022/03/15 04:20:08;;;;;;;4.45;3.88;;;;;;;16.45;30.33;94299.50;4918582;29;20200;-87
2022/03/15 04:22:34;;;;;;;3.97;3.47;;;;;;;16.48;30.10;94297.06;4899890;29;20048;-87
2022/03/15 04:24:59;;;;;;;3.92;3.15;;;;;;;16.45;30.28;94298.78;4909841;29;20050;-87
2022/03/15 04:27:25;;;;;;;4.32;3.42;;;;;;;16.45;30.04;94290.59;4902744;29;20039;-88
2022/03/15 04:29:50;;;;;;;4.32;3.92;;;;;;;16.46;30.23;94289.34;4903473;29;20121;-87
2022/03/15 04:32:16;;;;;;;4.43;3.45;;;;;;;16.45;30.24;94285.88;4902836;29;20032;-88
2022/03/15 04:34:41;;;;;;;4.60;3.78;;;;;;;16.45;30.00;94283.16;4918515;29;20118;-87
2022/03/15 04:37:07;;;;;;;4.20;3.47;;;;;;;16.45;30.16;94279.69;4903013;29;20498;-88
2022/03/15 04:39:33;;;;;;;3.92;3.45;;;;;;;16.44;30.14;94278.94;4918598;29;20110;-87
2022/03/15 04:41:58;;;;;;;4.82;3.35;;;;;;;16.44;30.33;94267.28;4903252;29;20036;-87
2022/03/15 04:44:23;;;;;;;4.57;3.70;;;;;;;16.45;30.38;94266.03;4900911;29;20038;-88
2022/03/15 04:46:49;;;;;;;3.75;3.38;;;;;;;16.45;30.22;94271.50;4918918;29;20402;-88
2022/03/15 04:49:14;;;;;;;4.07;3.30;;;;;;;16.45;29.99;94264.03;4918279;28;20042;-87
2022/03/15 04:51:40;;;;;;;4.38;3.47;;;;;;;16.43;30.18;94261.06;4934298;29;20039;-88
2022/03/15 04:54:05;;;;;;;5.53;3.70;;;;;;;16.44;30.32;94270.75;4918030;28;20041;-87
2022/03/15 04:56:31;;;;;;;4.60;3.78;;;;;;;16.42;30.26;94267.75;4931659;29;20035;-87
2022/03/15 04:58:56;;;;;;;5.25;4.18;;;;;;;16.43;30.04;94261.06;4934722;29;20047;-90
2022/03/15 05:01:22;;;;;;;3.88;3.35;;;;;;;16.43;30.13;94254.84;4902346;28;20043;-88
2022/03/15 05:03:47;;;;;;;3.55;3.25;;;;;;;16.40;30.17;94256.56;4915395;29;20035;-88
2022/03/15 05:06:13;;;;;;;4.20;3.35;;;;;;;16.42;30.11;94254.09;4933259;29;20032;-88
2022/03/15 05:08:38;;;;;;;3.45;3.10;;;;;;;16.42;30.12;94245.91;4902234;29;20035;-87
2022/03/15 05:11:07;;;;;;;3.80;3.05;;;;;;;16.41;30.35;94249.13;4920865;28;20557;-88
2022/03/15 05:13:36;;;;;;;4.68;3.00;;;;;;;16.42;30.38;94256.06;4918145;29;20110;-88
2022/03/15 05:16:02;;;;;;;3.72;3.22;;;;;;;16.44;30.36;94245.44;4894901;29;20180;-87
2022/03/15 05:18:27;;;;;;;26.17;15.30;;;;;;;16.47;30.68;94239.00;4880323;29;20067;-87
2022/03/15 05:20:53;;;;;;;11.60;10.45;;;;;;;16.43;30.21;94250.16;4879531;29;20059;-88
2022/03/15 05:23:18;;;;;;;7.25;4.43;;;;;;;16.43;30.49;94241.97;4891448;29;20036;-86
2022/03/15 05:25:44;;;;;;;20.63;15.82;;;;;;;16.47;30.61;94247.19;4879620;29;20036;-87
2022/03/15 05:28:10;;;;;;;26.83;17.00;;;;;;;16.50;30.97;94240.03;4896725;29;20056;-89
2022/03/15 05:30:36;;;;;;;8.27;4.65;;;;;;;16.48;31.13;94232.31;4880163;29;20040;-93
2022/03/15 05:33:01;;;;;;;17.80;13.60;;;;;;;16.58;30.98;94230.97;4900296;29;20040;-89
2022/03/15 05:35:27;;;;;;;22.45;12.25;;;;;;;16.64;31.13;94222.88;4881790;29;20028;-88
2022/03/15 05:37:53;;;;;;;30.92;21.23;;;;;;;16.63;30.76;94235.78;4898713;29;20051;-88
2022/03/15 05:40:20;;;;;;;12.15;8.07;;;;;;;16.66;31.06;94245.72;4873749;29;20791;-92
2022/03/15 05:42:46;;;;;;;11.60;8.38;;;;;;;16.71;30.49;94220.44;4908391;29;20064;-90
2022/03/15 05:45:11;;;;;;;13.10;8.77;;;;;;;16.67;30.03;94216.47;4880567;29;20119;-93
2022/03/15 05:47:37;;;;;;;15.68;8.60;;;;;;;16.71;30.29;94212.25;4893605;29;20059;-90
2022/03/15 05:50:03;;;;;;;14.38;9.43;;;;;;;16.65;30.43;94214.22;4890716;29;20092;-90
2022/03/15 05:52:28;;;;;;;24.60;8.65;;;;;;;16.61;30.42;94221.81;4879813;29;20044;-87
2022/03/15 05:54:54;;;;;;;17.98;9.77;;;;;;;16.60;30.47;94214.84;4892170;29;20689;-91
2022/03/15 05:57:19;;;;;;;44.53;15.20;;;;;;;16.64;30.65;94228.34;4880975;29;20111;-89
2022/03/15 05:59:54;;;;;;;87.90;21.30;;;;;;;16.59;31.12;94221.53;4901546;29;20071;-91
2022/03/15 06:02:21;;;;;;;82.45;21.40;;;;;;;16.59;30.72;94221.53;4908919;29;20047;-90
2022/03/15 06:04:47;;;;;;;93.28;39.60;;;;;;;16.56;30.68;94217.03;4883388;29;20048;-88
2022/03/15 06:07:12;;;;;;;89.70;30.65;;;;;;;16.52;30.63;94215.75;4910122;29;20039;-91
2022/03/15 06:09:38;;;;;;;118.07;45.35;;;;;;;16.55;30.70;94223.72;4891880;29;20052;-89
2022/03/15 06:12:04;;;;;;;127.22;52.00;;;;;;;16.53;30.69;94212.53;4893363;29;20033;-89
2022/03/15 06:14:29;;;;;;;124.88;49.65;;;;;;;16.49;31.46;94209.25;4890991;29;20045;-90
2022/03/15 06:16:54;;;;;;;79.32;37.15;;;;;;;16.40;31.28;94210.16;4887198;29;20056;-89
2022/03/15 06:19:20;;;;;;;84.28;35.22;;;;;;;16.29;31.35;94215.47;4889302;29;20040;-91
2022/03/15 06:21:45;;;;;;;67.72;28.65;;;;;;;16.20;31.67;94212.13;4896424;29;20040;-89
2022/03/15 06:24:11;;;;;;;67.18;24.98;;;;;;;16.08;31.59;94211.22;4892013;29;20040;-87
2022/03/15 06:26:38;;;;;;;91.70;33.13;;;;;;;16.02;31.53;94211.16;4874522;29;20073;-91
2022/03/15 06:29:03;;;;;;;62.35;23.88;;;;;;;15.93;31.77;94211.28;4881544;29;20047;-92
2022/03/15 06:31:33;;;;;;;64.32;23.73;;;;;;;15.94;32.00;94215.53;4887282;29;20608;-88
2022/03/15 06:33:58;;;;;;;124.35;27.13;;;;;;;15.85;32.18;94209.44;4897242;29;20063;-91
2022/03/15 06:36:26;;;;;;;98.63;21.70;;;;;;;15.90;32.01;94211.50;4897072;29;20146;-89
2022/03/15 06:38:52;;;;;;;82.13;20.95;;;;;;;15.98;32.25;94216.06;4899194;29;20041;-88
2022/03/15 06:41:17;;;;;;;150.63;28.83;;;;;;;15.97;31.89;94214.56;4878712;29;20074;-91
2022/03/15 06:43:43;;;;;;;95.85;19.17;;;;;;;15.84;32.51;94218.81;4896025;29;20088;-89
2022/03/15 06:46:08;;;;;;;109.10;18.88;;;;;;;15.87;32.25;94215.16;4920104;29;20138;-91
2022/03/15 06:48:35;;;;;;;135.73;24.02;;;;;;;15.97;32.41;94216.56;4900999;29;20488;-89
2022/03/15 06:51:00;;;;;;;122.72;23.33;;;;;;;15.94;32.15;94212.78;4885107;29;20158;-91
2022/03/15 06:53:26;;;;;;;175.82;32.10;;;;;;;16.03;32.11;94204.47;4899576;29;20040;-92
2022/03/15 06:55:51;;;;;;;160.43;29.38;;;;;;;16.06;32.31;94197.31;4905224;23;20100;-86
2022/03/15 06:58:17;;;;;;;116.00;30.40;;;;;;;16.09;32.01;94205.31;4908260;28;20035;-91
2022/03/15 07:00:43;;;;;;;153.18;43.60;;;;;;;16.15;31.65;94202.66;4916832;29;20107;-94
2022/03/15 07:03:09;;;;;;;175.10;39.17;;;;;;;16.17;31.87;94194.75;4924306;28;20114;-93
2022/03/15 07:05:34;;;;;;;125.90;37.33;;;;;;;16.18;31.59;94190.78;4916457;29;20069;-89
2022/03/15 07:08:04;;;;;;;147.85;40.45;;;;;;;16.22;32.05;94196.06;4925498;29;20155;-89
2022/03/15 07:10:31;;;;;;;117.18;39.10;;;;;;;16.23;32.69;94183.91;4940174;29;20046;-92
2022/03/15 07:12:56;;;;;;;121.28;39.97;;;;;;;16.29;31.88;94182.72;4919523;29;20070;-93
2022/03/15 07:15:22;;;;;;;104.20;40.42;;;;;;;16.31;31.41;94193.91;4870898;29;20060;-94
2022/03/15 07:17:51;;;;;;;114.10;43.03;;;;;;;16.29;31.57;94201.84;4859153;29;20596;-94
2022/03/15 07:20:46;;;;;;;117.38;45.92;;;;;;;16.36;31.52;94192.50;4862758;29;20036;-94
2022/03/15 07:23:13;;;;;;;116.63;48.92;;;;;;;16.32;31.72;94195.41;4871251;29;20132;-94
2022/03/15 07:25:38;;;;;;;123.10;47.65;;;;;;;16.34;31.61;94192.22;4855871;29;20064;-87
2022/03/15 07:28:04;;;;;;;133.30;50.22;;;;;;;16.38;31.76;94196.25;4870195;29;20053;-92
2022/03/15 07:30:29;;;;;;;156.63;50.72;;;;;;;16.41;31.65;94189.09;4832679;29;20045;-88
2022/03/15 07:32:55;;;;;;;127.53;51.95;;;;;;;16.43;31.60;94181.91;4846958;29;20045;-89
2022/03/15 07:35:20;;;;;;;342.65;94.53;;;;;;;16.46;31.57;94183.66;4873972;29;20057;-91
2022/03/15 07:37:53;;;;;;;138.95;52.28;;;;;;;16.48;31.58;94198.81;4851483;29;20042;-91
2022/03/15 07:40:18;;;;;;;116.20;39.42;;;;;;;16.51;31.97;94195.88;4864756;29;20034;-91
2022/03/15 07:42:46;;;;;;;125.72;41.92;;;;;;;16.49;31.74;94184.69;4865938;29;20055;-92
2022/03/15 07:45:11;;;;;;;112.03;43.40;;;;;;;16.48;31.56;94193.34;4866384;29;20041;-91
2022/03/15 07:47:37;;;;;;;96.03;40.13;;;;;;;16.50;31.42;94185.44;4888765;29;20032;-90
2022/03/15 07:50:03;;;;;;;107.32;39.67;;;;;;;16.52;31.56;94186.47;4888987;29;20373;-90
2022/03/15 07:52:28;;;;;;;85.13;31.15;;;;;;;16.52;32.76;94183.75;4885889;29;20127;-89
2022/03/15 07:54:54;;;;;;;113.97;36.92;;;;;;;16.56;31.76;94183.53;4914780;29;20036;-90
2022/03/15 07:57:19;;;;;;;84.78;31.63;;;;;;;16.51;32.08;94165.13;4908616;28;20032;-92
2022/03/15 07:59:46;;;;;;;53.83;22.23;;;;;;;16.35;31.85;94169.91;4915092;28;20035;-91
2022/03/15 08:02:15;;;;;;;58.22;21.35;;;;;;;16.26;32.16;94166.56;4927863;28;20133;-93
2022/03/15 08:04:42;;;;;;;64.10;23.17;;;;;;;16.21;32.28;94167.28;4928737;23;20058;-92
2022/03/15 08:07:13;;;;;;;63.85;23.58;;;;;;;16.26;32.50;94170.03;4905964;29;20040;-94
2022/03/15 08:09:39;;;;;;;83.60;26.88;;;;;;;16.31;32.07;94157.69;4891873;29;20036;-94
2022/03/15 08:12:05;;;;;;;139.93;48.10;;;;;;;16.34;32.39;94162.19;4898309;29;20047;-95
2022/03/15 08:14:32;;;;;;;110.07;38.95;;;;;;;16.34;32.20;94164.94;4869549;29;20041;-93
2022/03/15 08:16:59;;;;;;;124.70;46.00;;;;;;;16.32;32.39;94167.38;4838267;29;20079;-93
2022/03/15 08:19:33;;;;;;;130.07;42.70;;;;;;;16.35;32.31;94169.91;4846717;29;20132;-91
2022/03/15 08:22:01;;;;;;;117.03;46.63;;;;;;;16.34;32.05;94156.75;4862551;29;20087;-93
2022/03/15 08:24:29;;;;;;;111.63;42.25;;;;;;;16.39;32.19;94164.25;4859993;29;20105;-92
2022/03/15 08:26:55;;;;;;;145.57;50.58;;;;;;;16.41;32.18;94159.81;4849623;29;20045;-91
2022/03/15 08:29:20;;;;;;;150.75;52.75;;;;;;;16.41;32.43;94165.28;4840303;29;20065;-91
2022/03/15 08:31:59;;;;;;;147.10;53.72;;;;;;;16.43;31.96;94159.34;4850655;29;20053;-94
2022/03/15 08:34:32;;;;;;;127.43;56.55;;;;;;;16.46;32.21;94161.09;4879150;29;20660;-87
2022/03/15 08:36:58;;;;;;;161.57;59.95;;;;;;;16.47;31.66;94148.94;4885190;29;20033;-94
2022/03/15 08:39:24;;;;;;;177.95;70.13;;;;;;;16.46;31.98;94150.16;4881141;29;20068;-93
2022/03/15 08:41:53;;;;;;;168.30;61.70;;;;;;;16.46;31.91;94155.63;4870556;29;20641;-91
2022/03/15 08:44:20;;;;;;;145.82;55.35;;;;;;;16.44;31.86;94153.41;4861867;29;20052;-89
2022/03/15 08:46:47;;;;;;;140.00;53.60;;;;;;;16.45;32.80;94154.88;4875000;29;20130;-89
2022/03/15 08:49:13;;;;;;;146.30;55.42;;;;;;;16.51;31.78;94151.47;4879169;29;20056;-88
2022/03/15 08:51:42;;;;;;;131.15;56.58;;;;;;;16.49;31.79;94143.00;4871383;29;20071;-91
2022/03/15 08:54:08;;;;;;;130.95;56.60;;;;;;;16.50;32.50;94144.50;4881280;29;20048;-94
2022/03/15 08:56:35;;;;;;;143.80;62.78;;;;;;;16.56;31.45;94142.59;4876654;29;20039;-92
2022/03/15 08:59:01;;;;;;;128.85;58.00;;;;;;;16.51;31.57;94141.31;4893076;29;20052;-92
2022/03/15 09:01:26;;;;;;;125.30;59.33;;;;;;;16.53;31.98;94141.56;4886491;29;20094;-89
2022/03/15 09:03:52;;;;;;;130.48;53.70;;;;;;;16.58;31.96;94140.88;4903134;29;20131;-90
2022/03/15 09:06:17;;;;;;;116.57;50.92;;;;;;;16.53;31.43;94136.13;4899792;29;20554;-92
2022/03/15 09:08:43;;;;;;;117.72;50.75;;;;;;;16.55;31.77;94136.38;4880746;29;20040;-93
2022/03/15 09:11:08;;;;;;;115.80;44.47;;;;;;;16.56;32.57;94126.97;4873735;29;20052;-93
2022/03/15 09:13:34;;;;;;;122.35;53.05;;;;;;;16.60;31.99;94127.50;4840940;29;20080;-93
2022/03/15 09:16:05;;;;;;;122.43;50.40;;;;;;;16.58;31.67;94137.41;4909485;23;20521;-91
2022/03/15 09:18:31;;;;;;;107.15;53.03;;;;;;;16.62;31.34;94137.94;4897167;29;20040;-95
2022/03/15 09:20:56;;;;;;;98.80;46.45;;;;;;;16.60;31.35;94124.03;4884067;29;20044;-93
2022/03/15 09:23:23;;;;;;;105.25;49.53;;;;;;;16.63;31.57;94123.84;4918983;29;20060;-93
2022/03/15 09:25:50;;;;;;;155.75;51.85;;;;;;;16.61;31.67;94134.47;4903368;29;20542;-93
2022/03/15 09:28:16;;;;;;;128.52;50.78;;;;;;;16.58;31.93;94129.97;4899686;29;20048;-92
2022/03/15 09:30:48;;;;;;;104.63;46.00;;;;;;;16.60;31.70;94134.94;4899907;29;20028;-94
2022/03/15 09:33:14;;;;;;;94.15;46.30;;;;;;;16.62;31.82;94133.25;4855669;29;20172;-95
2022/03/15 09:35:41;;;;;;;100.90;43.40;;;;;;;16.65;31.64;94135.03;4875419;29;20127;-91
2022/03/15 09:38:07;;;;;;;116.18;45.47;;;;;;;16.66;31.41;94135.78;4873226;29;20060;-90
2022/03/15 09:40:32;;;;;;;96.80;44.00;;;;;;;16.65;31.81;94126.09;4896668;29;20123;-91
2022/03/15 09:42:59;;;;;;;70.90;37.05;;;;;;;16.65;31.99;94123.38;4899615;29;20040;-91
2022/03/15 09:45:29;;;;;;;77.82;39.13;;;;;;;16.62;31.72;94118.84;4881218;29;20025;-92
2022/03/15 09:47:57;;;;;;;66.20;30.52;;;;;;;16.65;31.34;94123.38;4866755;29;20072;-93
2022/03/15 09:50:32;;;;;;;66.05;31.10;;;;;;;16.60;31.80;94111.13;4861576;29;20407;-90
2022/03/15 09:53:06;;;;;;;71.30;32.92;;;;;;;16.59;32.03;94098.72;4849485;29;20575;-92
2022/03/15 09:55:32;;;;;;;143.15;40.80;;;;;;;16.62;31.68;94103.22;4876312;29;20045;-93
2022/03/15 09:58:05;;;;;;;149.90;46.47;;;;;;;16.65;31.58;94087.88;4872760;29;20047;-92
2022/03/15 10:00:31;;;;;;;342.95;55.85;;;;;;;16.63;31.98;94096.56;4858336;29;20041;-90
2022/03/15 10:03:23;;;;;;;495.95;68.72;;;;;;;16.65;31.54;94088.63;4866769;29;20044;-94
2022/03/15 10:05:50;;;;;;;342.40;61.10;;;;;;;16.69;31.67;94080.19;4814375;29;20069;-92
2022/03/15 10:08:17;;;;;;;181.20;48.72;;;;;;;16.69;31.72;94074.75;4792388;29;20046;-93
2022/03/15 10:10:43;;;;;;;170.40;46.15;;;;;;;16.69;31.71;94069.28;4776200;29;20660;-91
2022/03/15 10:13:09;;;;;;;143.45;52.00;;;;;;;16.70;31.57;94074.25;4789670;29;20050;-91
2022/03/15 10:15:35;;;;;;;146.52;47.15;;;;;;;16.66;32.00;94076.47;4793576;29;20500;-92
2022/03/15 10:18:04;;;;;;;170.98;49.00;;;;;;;16.67;31.65;94064.31;4773410;29;20107;-91
2022/03/15 10:20:38;;;;;;;189.40;54.90;;;;;;;16.71;31.85;94069.56;4773748;29;20156;-91
2022/03/15 10:23:04;;;;;;;180.02;50.90;;;;;;;16.73;31.74;94067.84;4772948;29;20147;-90
2022/03/15 10:25:31;;;;;;;195.48;66.57;;;;;;;16.72;31.62;94079.25;4787255;29;20728;-91
2022/03/15 10:27:58;;;;;;;162.93;63.58;;;;;;;16.72;31.59;94081.97;4774789;29;20069;-94
2022/03/15 10:30:24;;;;;;;172.32;60.22;;;;;;;16.73;32.16;94091.66;4787234;29;20125;-92
2022/03/15 10:32:59;;;;;;;154.80;54.13;;;;;;;16.73;32.03;94083.47;4806286;29;20049;-91
2022/03/15 10:35:29;;;;;;;144.55;55.92;;;;;;;16.76;32.47;94075.06;4823985;29;20137;-91
2022/03/15 10:37:59;;;;;;;138.90;55.50;;;;;;;16.74;32.21;94076.78;4811514;29;20061;-92
2022/03/15 10:40:38;;;;;;;174.10;61.72;;;;;;;16.76;32.15;94079.78;4823919;29;20094;-92
2022/03/15 10:43:08;;;;;;;121.00;45.40;;;;;;;16.76;31.66;94077.78;4859379;29;20108;-93
2022/03/15 10:45:34;;;;;;;160.75;51.78;;;;;;;16.77;31.57;94057.44;4878742;29;20041;-91
2022/03/15 10:48:00;;;;;;;140.70;50.97;;;;;;;16.73;31.68;94059.66;4863665;29;20044;-91
2022/03/15 10:50:26;;;;;;;142.63;47.50;;;;;;;16.78;31.89;94055.47;4892215;29;20127;-90
2022/03/15 10:52:55;;;;;;;148.07;47.88;;;;;;;16.78;31.74;94047.28;4903366;29;20076;-92
2022/03/15 10:55:28;;;;;;;140.63;48.60;;;;;;;16.77;31.68;94053.97;4892102;29;20065;-91
2022/03/15 10:57:55;;;;;;;159.95;54.88;;;;;;;16.81;31.79;94057.25;4869470;29;20068;-92
2022/03/15 11:00:25;;;;;;;170.50;54.75;;;;;;;16.82;31.67;94053.28;4886446;29;20511;-92
2022/03/15 11:02:51;;;;;;;211.60;52.13;;;;;;;16.78;32.44;94044.56;4883687;29;20124;-92
2022/03/15 11:05:46;;;;;;;230.32;57.05;;;;;;;16.79;31.81;94041.34;4881064;29;20040;-90
2022/03/15 11:08:17;;;;;;;249.48;57.95;;;;;;;16.84;34.47;94039.88;4893028;29;20043;-92
2022/03/15 11:10:47;;;;;;;229.32;62.53;;;;;;;16.88;32.22;94026.03;4895480;29;20040;-91
2022/03/15 11:13:12;;;;;;;173.98;52.15;;;;;;;16.87;33.21;94029.97;4895556;29;20040;-91
2022/03/15 11:15:43;;;;;;;152.05;46.70;;;;;;;16.91;32.42;94027.75;4916807;29;20043;-90
2022/03/15 11:18:11;;;;;;;128.63;47.58;;;;;;;16.92;32.08;94026.53;4913965;29;20036;-92
2022/03/15 11:20:40;;;;;;;90.20;33.85;;;;;;;16.91;31.31;94014.09;4913608;29;20163;-91